Hauptseite
METAR-TAF:

METAR-TAF

Flughäfen :

Christchurch, Neuseeland

Christchurch International Airport

Breite: 43-29S, Länge: 172-33E, Höhe: 38 m

Beobachtung

Neuester Wetterbericht von vor 41 Minuten, um 11:30 UTC
Wind 5 kt aus West
Temperatur 3°C
Luftfeuchtigkeit 87%
Luftdruck 1015 hPa
Sichtweite 10 km oder mehr

METAR: NZCH 211130Z AUTO 28005KT 9999 NCD 03/01 Q1015 NOSIG

Zeit: 00:11 (12:11 UTC)

Prognose

Neuester Wetterbericht von vor 45 Minuten, um 11:26 UTC
Gültige Prognose vom 21 um 12 UTC bis 22 um 12 UTC
Wind 5 kt aus West/Südwest
Sichtweite 10 km oder mehr
Leicht bewölkt in der Höhe von 5000 ft
Übergehend zu
vom 22 um 00 UTC bis 22 um 02 UTC
Wind 10 kt aus Nordost
Übergehend zu
vom 22 um 10 UTC bis 22 um 12 UTC
Wind 5 kt aus West

TAF: NZCH 211126Z 2112/2212 24005KT 9999 FEW050 BECMG 2200/2202 04010KT BECMG 2210/2212 26005KT

Wetterbeobachtungen und Prognosen von mehr als 4000 Flughäfen (METAR und TAF Bericht).

Die verfügbaren Stationen werden durch gelbe und rote Markierungen auf der Karte dargestellt.

Führen Sie die Maus auf sie, um den Namen der Station zu sehen.

Darauf klicken, um die Beobachtung von Wetterbeobachtungen und Prognosen zu sehen.

Um die Karte zu ändern : klicken Sie auf den grünen Tasten mit einem schwarzen Kreuz Zum Vergrößern, auf den grünen Button mit einem Gedankenstrich zu verkleinern, oder auf die grünen Pfeile für benachbarte Karten.


METAR-TAF: